x

Fairport, Mi (fptm4) Weather Station

3:40pm - Sat 21st Oct 2017 All times are CDT. -5 hours from GMT.

  • Wind
    23mph, 31mph gusts
  • Air Temp 61°f
  • Sea Pressure 1013.5mb
  • Fairport, Mi
  • Fairport, Mi

More Historic Weather Station data

Upgrade to MSW Pro to gain access to the past 30 days of data for over 8000 Wavebouys and Weather Stations around the globe.

Join

Comparision Forecast

View Surf forecast
   
Sat 10/21 3:40pm 23 31 mph 1013.5mb 61f
3:30pm 25 30 mph 1013.5mb 61f
3:20pm 23 30 mph 1013.5mb 61f
3:10pm 24 31 mph 1013.2mb 61f
3:06pm 23 30 mph 1013.2mb 61f
3:00pm 21 30 mph 1013.5mb 61f
2:40pm 22 29 mph 1013.9mb 60f
2:30pm 22 28 mph 1013.5mb 60f
2:20pm 23 31 mph 1013.5mb 60f
2:10pm 25 31 mph 1013.9mb 60f
2:02pm 24
mph
1013.9mb 60f
2:00pm 25 29 mph 1013.9mb 60f
1:40pm 20 24 mph 1014.2mb 60f
1:30pm 22 26 mph 1014.6mb 60f
1:20pm 23 28 mph 1014.6mb 60f
1:10pm 24 29 mph 1014.6mb 60f
1:02pm 24
mph
1014.6mb 60f
1:00pm 24 30 mph 1014.6mb 60f
12:40pm 24 30 mph 1014.6mb 60f
12:30pm 24 31 mph 1014.6mb 60f
12:20pm 25 30 mph 1014.6mb 60f
12:10pm 24 28 mph 1014.9mb 60f
12:01pm 23
mph
1014.9mb 60f
12:00pm 23 29 mph 1014.9mb 60f
11:40am 23 28 mph 1014.9mb 60f
11:30am 24 29 mph 1014.9mb 60f
11:20am 23 29 mph 1014.9mb 60f
11:10am 23 28 mph 1014.9mb 60f
11:01am 22
mph
1014.9mb 59f
11:00am 22 29 mph 1014.9mb 59f
10:40am 21 28 mph 1015.2mb 59f
10:30am 20 25 mph 1015.2mb 59f
10:20am 22 25 mph 1015.6mb 59f
10:10am 20 24 mph 1015.2mb 59f
10:00am 20 24 mph 1015.2mb 60f
9:40am 17 23 mph 1015.2mb 59f
9:30am 18 22 mph 1015.2mb 59f
9:20am 17 20 mph 1015.2mb 59f
9:10am 17 23 mph 1015.2mb 60f
9:00am 18 22 mph 1014.9mb 60f
8:40am 20 24 mph 1014.9mb 60f
8:30am 20 25 mph 1014.9mb 60f
8:20am 22 26 mph 1014.9mb 60f
8:10am 21 25 mph 1015.2mb 60f
8:00am 20 23 mph 1014.9mb 59f
7:40am 16 20 mph 1015.2mb 59f
7:30am 16 18 mph 1015.2mb 59f
7:20am 15 18 mph 1015.2mb 59f
7:10am 16 18 mph 1015.2mb 59f
7:00am 15 18 mph 1014.9mb 59f
6:40am 14 16 mph 1014.9mb 58f
6:30am 13 17 mph 1014.9mb 58f
6:20am 11 16 mph 1014.9mb 58f
6:10am 11 15 mph 1014.9mb 58f
6:00am 13 15 mph 1014.9mb 58f
5:40am 11 14 mph 1014.9mb 58f
5:30am 11 14 mph 1014.9mb 58f
5:20am 10 14 mph 1014.9mb 58f
5:10am 13 16 mph 1014.9mb 58f
5:00am 14 17 mph 1015.2mb 58f
4:40am 13 17 mph 1014.9mb 58f
4:30am 14 17 mph 1014.9mb 58f
4:20am 15 18 mph 1014.6mb 58f
4:10am 17 20 mph 1014.9mb 58f
4:00am 15 18 mph 1014.6mb 59f
3:40am 16 20 mph 1014.6mb 59f
3:30am 16 21 mph 1014.6mb 59f
3:20am 17 22 mph 1014.6mb 59f
3:10am 16 21 mph 1014.6mb 59f
3:00am 17 22 mph 1014.9mb 59f
2:40am 18 21 mph 1014.9mb 59f
2:30am 17 21 mph 1014.9mb 59f
2:20am 16 20 mph 1014.9mb 59f
2:10am 14 18 mph 1014.9mb 59f
2:00am 15 17 mph 1014.9mb 59f
1:40am 14 17 mph 1014.9mb 59f
1:30am 13 16 mph 1014.9mb 59f
1:20am 11 14 mph 1014.9mb 59f
1:10am 10 14 mph 1015.2mb 59f
1:00am 10 14 mph 1015.2mb 59f
12:40am 13 15 mph 1015.2mb 59f
12:30am 11 16 mph 1015.2mb 59f
12:20am 13 16 mph 1015.2mb 59f
12:10am 14 17 mph 1014.9mb 59f
12:00am 13 17 mph 1015.2mb 59f
Fri 10/20 11:40pm 11 16 mph 1014.9mb 59f
11:30pm 13 15 mph 1014.9mb 59f
11:20pm 14 15 mph 1014.9mb 59f
11:10pm 13 16 mph 1014.9mb 59f
11:00pm 13 17 mph 1014.9mb 59f
10:40pm 14 16 mph 1014.6mb 59f
10:30pm 13 16 mph 1014.6mb 59f
10:20pm 14 17 mph 1014.6mb 59f
10:10pm 14 17 mph 1014.6mb 59f
10:00pm 14 18 mph 1014.6mb 59f
9:40pm 14 18 mph 1014.6mb 59f
9:30pm 15 20 mph 1014.6mb 59f
9:20pm 16 20 mph 1014.6mb 59f
9:10pm 16 20 mph 1014.6mb 58f
9:00pm 17 21 mph 1014.6mb 59f
8:40pm 17 22 mph 1014.6mb 59f
8:30pm 17 21 mph 1014.6mb 59f
8:20pm 17 21 mph 1014.6mb 59f
8:10pm 17 22 mph 1014.6mb 58f
8:00pm 17 22 mph 1014.6mb 58f
7:40pm 18 23 mph 1014.6mb 58f
7:30pm 18 23 mph 1014.6mb 58f
7:20pm 20 24 mph 1014.6mb 58f
7:10pm 20 24 mph 1014.6mb 58f
7:00pm 20 25 mph 1014.6mb 58f
6:40pm 20 23 mph 1014.6mb 58f
6:30pm 20 25 mph 1014.6mb 58f
6:20pm 21 25 mph 1014.2mb 58f
6:10pm 22 28 mph 1014.2mb 59f
6:00pm 23 25 mph 1014.2mb 59f
5:40pm 20 25 mph 1014.2mb 58f
5:30pm 20 26 mph 1014.2mb 58f
5:20pm 20 23 mph 1014.2mb 58f
5:10pm 20 25 mph 1014.2mb 58f
5:00pm 21 23 mph 1014.2mb 58f
4:40pm 20 23 mph 1014.2mb 58f
4:30pm 20 24 mph 1014.2mb 58f
4:20pm 18 24 mph 1014.2mb 58f
4:10pm 20 23 mph 1014.2mb 58f
4:00pm 18 23 mph 1014.2mb 59f
3:50pm 20 23 mph 1014.9mb 59f
3:40pm 18 22 mph 1014.6mb 59f
3:30pm 18 24 mph 1014.6mb 59f
3:20pm 20 22 mph 1014.6mb 59f
3:10pm 17 23 mph 1014.9mb 59f
3:01pm 18 22 mph 1014.9mb 59f
3:00pm 18 21 mph 1014.9mb 59f
2:50pm 17 21 mph 1015.6mb 59f
2:40pm 17 22 mph 1015.2mb 59f
2:30pm 17 21 mph 1015.2mb 59f
2:20pm 16 21 mph 1015.2mb 58f
2:10pm 17 21 mph 1015.2mb 58f
2:00pm 17 20 mph 1015.6mb 58f
1:50pm 17 21 mph 1016.3mb 58f
1:40pm 15 18 mph 1015.6mb 58f
1:30pm 17 20 mph 1015.9mb 58f
1:20pm 17 21 mph 1015.9mb 58f
1:10pm 17 21 mph 1015.9mb 58f
1:00pm 17 20 mph 1015.9mb 58f
12:50pm 16 20 mph 1016.6mb 58f
12:40pm 16 20 mph 1016.3mb 58f
12:30pm 15 18 mph 1016.3mb 57f
12:20pm 15 18 mph 1016.3mb 57f
12:10pm 16 17 mph 1016.6mb 57f
12:00pm 15 18 mph 1016.6mb 57f
11:50am 15 20 mph 1017.3mb 57f
11:40am 17 21 mph 1016.6mb 57f
11:30am 17 21 mph 1016.6mb 57f
11:20am 17 20 mph 1016.6mb 57f
11:10am 18 21 mph 1016.9mb 57f
11:00am 17 20 mph 1016.9mb 57f
10:50am 16 20 mph 1017.6mb 57f
9:50am 16 22 mph 1017.9mb 57f
9:00am 18 24 mph 1017.3mb 57f
8:50am 17 23 mph 1017.9mb 57f
8:40am 17 21 mph 1017.6mb 57f
8:30am 17 22 mph 1017.6mb 57f
8:20am 18 22 mph 1017.6mb 57f
8:10am 18 24 mph 1017.6mb 57f
8:00am 18 22 mph 1017.6mb 57f
7:50am 20 22 mph 1017.9mb 57f
7:40am 18 22 mph 1017.6mb 57f
7:30am 17 22 mph 1017.6mb 57f
7:20am 17 21 mph 1017.6mb 57f
7:10am 17 21 mph 1017.6mb 57f
7:00am 17 21 mph 1017.6mb 57f
6:50am 16 20 mph 1017.9mb 57f
6:40am 16 18 mph 1017.6mb 57f
6:30am 16 20 mph 1017.6mb 57f
6:20am 15 20 mph 1017.9mb 57f
6:10am 17 21 mph 1017.6mb 58f
6:00am 18 21 mph 1017.6mb 57f
5:50am 17 21 mph 1018.3mb 57f
5:40am 17 21 mph 1017.6mb 57f
5:30am 18 21 mph 1017.6mb 57f
5:20am 17 22 mph 1017.6mb 57f
5:10am 17 20 mph 1017.9mb 57f
5:00am 20 22 mph 1017.6mb 57f
4:50am 20 23 mph 1018.3mb 57f
4:40am 18 21 mph 1017.9mb 57f
4:30am 18 22 mph 1017.9mb 57f
4:20am 20 23 mph 1017.6mb 57f
4:10am 18 22 mph 1017.9mb 57f
4:00am 20 23 mph 1017.9mb 57f
3:50am 18 22 mph 1018.3mb 57f
3:40am 20 21 mph 1017.6mb 57f
3:30am 18 21 mph 1017.6mb 57f
3:20am 17 21 mph 1017.6mb 57f
3:10am 18 21 mph 1017.9mb 57f
3:00am 16 20 mph 1017.6mb 57f
2:50am 16 18 mph 1018.3mb 57f
2:40am 15 16 mph 1017.6mb 57f
2:30am 14 15 mph 1017.6mb 57f
2:20am 13 15 mph 1017.9mb 58f
2:10am 13 15 mph 1017.9mb 58f
2:00am 11 15 mph 1017.9mb 57f
1:50am 14 18 mph 1018.3mb 57f
1:40am 17 20 mph 1017.9mb 57f
1:30am 17 20 mph 1017.9mb 57f
1:20am 15 17 mph 1017.9mb 57f
1:10am 15 17 mph 1017.9mb 58f
1:00am 15 17 mph 1017.9mb 57f
12:50am 15 18 mph 1018.3mb 57f
12:40am 17 20 mph 1017.9mb 57f
12:30am 16 17 mph 1017.9mb 57f
12:20am 15 18 mph 1017.9mb 57f
12:10am 14 15 mph 1017.9mb 57f
12:00am 14 16 mph 1017.9mb 57f
Thu 10/19 11:50pm 13 15 mph 1018.3mb 57f
11:40pm 14 16 mph 1017.9mb 58f
11:30pm 14 16 mph 1017.9mb 58f
11:20pm 14 17 mph 1017.9mb 58f
11:10pm 14 16 mph 1017.9mb 58f
11:00pm 13 16 mph 1017.6mb 58f
10:50pm 14 16 mph 1018.3mb 58f
10:40pm 13 14 mph 1017.6mb 58f
10:30pm 13 15 mph 1017.6mb 58f
10:20pm 13 16 mph 1017.6mb 58f
10:10pm 14 16 mph 1017.6mb 58f
10:00pm 14 16 mph 1017.6mb 58f
9:50pm 14 16 mph 1018.3mb 58f
9:40pm 13 15 mph 1017.6mb 58f
9:30pm 11 13 mph 1017.6mb 59f
9:20pm 11 14 mph 1017.6mb 59f
9:10pm 11 14 mph 1017.6mb 58f
9:00pm 11 14 mph 1017.6mb 58f
8:50pm 13 15 mph 1017.9mb 58f
8:40pm 13 16 mph 1017.6mb 58f
8:30pm 13 15 mph 1017.6mb 58f
8:20pm 13 15 mph 1017.6mb 58f
8:10pm 11 14 mph 1017.6mb 58f
8:00pm 13 16 mph 1017.6mb 58f
7:50pm 13 15 mph 1017.9mb 58f
7:40pm 13 16 mph 1017.6mb 58f
7:30pm 13 16 mph 1017.6mb 58f
7:20pm 11 13 mph 1017.6mb 58f
7:10pm 9 10 mph 1017.6mb 58f
7:00pm 8 9 mph 1017.6mb 58f
6:50pm 8 9 mph 1017.9mb 58f
6:40pm 8 9 mph 1017.6mb 58f
6:30pm 7 9 mph 1017.6mb 58f
6:20pm 9 11 mph 1017.3mb 58f
6:10pm 8 10 mph 1017.3mb 58f
6:00pm 7 8 mph 1017.6mb 58f
5:50pm 7 10 mph 1017.9mb 58f
5:40pm 9 11 mph 1017.6mb 60f
5:30pm 9 11 mph 1017.3mb 60f
5:20pm 10 13 mph 1017.3mb 60f
5:10pm 11 14 mph 1017.3mb 60f
5:00pm 14 15 mph 1017.3mb 60f
4:50pm 13 15 mph 1017.6mb 60f
4:40pm 13 14 mph 1017.3mb 60f
4:30pm 10 13 mph 1016.9mb 62f
4:20pm 11 15 mph 1017.3mb 61f
4:10pm 11 15 mph 1016.9mb 61f
4:00pm 14 17 mph 1016.9mb 60f
3:50pm 14 17 mph 1017.6mb 60f
3:40pm 14 17 mph 1016.9mb 59f
3:30pm 15 17 mph 1016.9mb 59f
3:20pm 14 18 mph 1016.9mb 59f
3:10pm 16 20 mph 1016.9mb 59f
3:00pm 15 18 mph 1016.9mb 59f
2:50pm 15 17 mph 1017.6mb 59f
2:40pm 15 18 mph 1016.9mb 60f
2:30pm 14 17 mph 1016.9mb 61f
2:20pm 14 16 mph 1016.9mb 61f
2:10pm 13 18 mph 1016.9mb 60f
2:00pm 15 18 mph 1016.9mb 60f
1:50pm 15 20 mph 1017.6mb 60f
1:40pm 15 18 mph 1016.9mb 60f
1:30pm 15 18 mph 1017.3mb 60f
1:20pm 15 18 mph 1016.9mb 60f
1:10pm 13 16 mph 1016.9mb 60f
1:00pm 13 17 mph 1016.9mb 60f
12:50pm 14 17 mph 1017.6mb 59f
12:40pm 15 20 mph 1016.9mb 59f
12:30pm 16 23 mph 1016.9mb 59f
12:20pm 17 21 mph 1016.9mb 58f
12:10pm 18 23 mph 1016.9mb 58f
12:00pm 18 24 mph 1016.9mb 58f
11:50am 18 23 mph 1017.3mb 58f
11:40am 20 25 mph 1016.9mb 57f
11:30am 20 26 mph 1016.6mb 57f
11:20am 23 25 mph 1016.3mb 56f
11:10am 21 25 mph 1016.6mb 56f
11:00am 22 25 mph 1016.3mb 56f
10:50am 23 26 mph 1016.6mb 56f
10:40am 20 26 mph 1016.3mb 56f
10:30am 22 29 mph 1016.3mb 56f
10:27am 22 29 mph 1015.9mb 56f
10:20am 22 28 mph 1016.3mb 56f
10:10am 25 29 mph 1015.9mb 56f
10:00am 24 29 mph 1015.9mb 56f
9:50am 24 30 mph 1016.3mb 55f
9:40am 28 31 mph 1015.6mb 55f
9:30am 25 29 mph 1015.6mb 56f
9:20am 23 30 mph 1015.6mb 55f
9:10am 25 32 mph 1014.9mb 55f
9:00am 25 31 mph 1015.2mb 55f
8:52am 24 29 mph 1014.9mb 55f
8:50am 23 33 mph 1015.6mb 55f
8:40am 24 30 mph 1014.9mb 55f
8:30am 23 30 mph 1014.9mb 55f
8:20am 23 31 mph 1014.9mb 55f
8:10am 24 29 mph 1014.6mb 55f
8:00am 24 30 mph 1014.6mb 55f
7:50am 24 29 mph 1014.9mb 55f
7:49am 21 29 mph 1014.2mb 55f
7:40am 23 28 mph 1014.2mb 55f
7:30am 21 26 mph 1014.2mb 55f
7:20am 21 25 mph 1013.9mb 55f
7:10am 22 28 mph 1013.9mb 55f
7:00am 21 25 mph 1013.9mb 55f
6:50am 21 25 mph 1014.2mb 55f
6:40am 20 26 mph 1013.9mb 56f
6:30am 20 24 mph 1013.9mb 56f
6:20am 17 23 mph 1013.9mb 56f
6:10am 18 24 mph 1013.5mb 56f
6:00am 21 24 mph 1013.5mb 56f
5:50am 22 24 mph 1013.9mb 56f
5:40am 20 24 mph 1013.2mb 56f
5:30am 21 24 mph 1013.2mb 56f
5:20am 20 23 mph 1012.9mb 57f
5:10am 21 24 mph 1012.9mb 57f
5:00am 20 24 mph 1012.9mb 57f
4:50am 20 23 mph 1013.2mb 57f
4:40am 21 24 mph 1012.9mb 57f
4:30am 22 25 mph 1012.9mb 58f
4:20am 21 24 mph 1012.5mb 58f
4:10am 20 24 mph 1012.5mb 58f
4:00am 18 23 mph 1012.2mb 58f
3:50am 15 18 mph 1012.5mb 58f
3:40am 9 15 mph 1011.9mb 57f
3:30am 13 20 mph 1011.9mb 57f
3:20am 15 20 mph 1011.5mb 57f
3:10am 14 20 mph 1011.5mb 57f
3:00am 13 20 mph 1011.5mb 58f
2:50am 13 22 mph 1011.9mb 58f
2:40am 15 23 mph 1011.2mb 58f
2:30am 16 21 mph 1011.5mb 59f
2:20am 15 17 mph 1011.2mb 59f
2:10am 16 18 mph 1010.8mb 59f
2:00am 18 24 mph 1010.8mb 60f
1:50am 21 23 mph 1010.8mb 60f
1:40am 18 23 mph 1010.2mb 60f
1:30am 17 21 mph 1010.2mb 60f
1:20am 16 18 mph 1010.2mb 59f
1:10am 16 18 mph 1009.8mb 59f
1:00am 17 21 mph 1009.5mb 59f
12:50am 18 22 mph 1009.8mb 60f
12:40am 18 24 mph 1009.5mb 60f
12:30am 20 24 mph 1009.5mb 60f
12:20am 20 24 mph 1009.1mb 60f
12:10am 20 24 mph 1009.1mb 60f
12:06am 18 26 mph 1009.1mb 60f
12:00am 21 25 mph 1009.1mb 60f
Wed 10/18 11:50pm 20 26 mph 1009.5mb 60f
11:40pm 22 28 mph 1009.1mb 60f
11:30pm 23 29 mph 1008.8mb 60f
11:20pm 24 31 mph 1008.8mb 61f
11:10pm 23 32 mph 1008.8mb 61f
11:06pm 25
mph
1008.8mb 61f
11:00pm 25 32 mph 1008.8mb 62f
10:50pm 25 34 mph 1009.1mb 62f
10:40pm 28 34 mph 1008.8mb 62f
10:32pm 16 29 mph 1008.8mb 59f
10:30pm 17 23 mph 1008.8mb 59f
10:20pm 20 25 mph 1008.8mb 59f
10:10pm 23 28 mph 1008.8mb 59f
10:05pm 23 26 mph 1008.8mb 59f
10:00pm 23 30 mph 1008.8mb 59f
9:50pm 25 32 mph 1009.1mb 59f
9:40pm 28 33 mph 1008.5mb 59f
9:30pm 28 32 mph 1008.5mb 59f
9:20pm 28 33 mph 1008.5mb 59f
9:10pm 28 34 mph 1008.5mb 59f
9:05pm 29
mph
1008.5mb 59f
9:00pm 29 33 mph 1008.5mb 59f
8:50pm 26 34 mph 1009.1mb 59f
8:40pm 30 36 mph 1008.5mb 59f
8:30pm 30 37 mph 1008.5mb 60f
8:20pm 29 36 mph 1008.5mb 59f
8:10pm 31 37 mph 1008.8mb 60f
8:05pm 30
mph
1008.8mb 60f
8:00pm 29 36 mph 1009.1mb 60f
7:50pm 29 37 mph 1009.1mb 60f
7:40pm 26 37 mph 1008.8mb 60f
7:30pm 29 36 mph 1008.8mb 60f
7:20pm 30 38 mph 1009.1mb 60f
7:10pm 31 38 mph 1009.1mb 60f
7:04pm 29
mph
1009.1mb 60f
7:00pm 29 36 mph 1009.5mb 60f
6:50pm 32 39 mph 1009.8mb 60f
6:40pm 30 40 mph 1009.5mb 60f
6:30pm 32 40 mph 1009.5mb 60f
6:20pm 30 40 mph 1009.1mb 60f
6:10pm 33 40 mph 1009.1mb 60f
6:04pm 32
mph
1009.1mb 60f
5:50pm 30 38 mph 1009.8mb 60f
5:40pm 30 38 mph 1009.1mb 60f
5:30pm 32 38 mph 1008.8mb 60f
5:20pm 32 39 mph 1008.5mb 60f
5:10pm 30 38 mph 1009.1mb 60f
5:03pm 31
mph
1009.1mb 60f
5:00pm 31 37 mph 1009.1mb 60f
4:50pm 31 38 mph 1009.8mb 60f
4:40pm 30 37 mph 1009.5mb 60f
4:30pm 31 38 mph 1009.1mb 60f
4:20pm 30 38 mph 1009.5mb 60f
4:10pm 30 34 mph 1009.8mb 60f
4:03pm 30
mph
1009.8mb 60f
4:00pm 32 37 mph 1009.5mb 60f
3:53pm 31 31 mph 1009.5mb 60f
3:50pm 30 36 mph 1010.2mb 60f
3:40pm 29 39 mph 1009.8mb 60f
3:30pm 29 36 mph 1009.5mb 60f
3:20pm 29 36 mph 1009.8mb 60f
3:10pm 26 34 mph 1010.5mb 60f
3:02pm 28
mph
1010.5mb 60f
3:00pm 25 32 mph 1010.5mb 60f
2:50pm 28 34 mph 1010.8mb 60f
2:02pm 26
mph
1010.8mb 60f
1:52pm 29 31 mph 1011.2mb 59f
1:40pm 29 33 mph 1011.2mb 59f
1:30pm 29 32 mph 1011.5mb 59f
1:20pm 26 34 mph 1011.5mb 59f
1:10pm 29 32 mph 1011.9mb 59f
1:01pm 26
mph
1011.9mb 58f
1:00pm 26 32 mph 1012.2mb 58f
12:50pm 29 32 mph 1012.9mb 58f
12:30pm 24 29 mph 1012.9mb 58f
12:20pm 22 29 mph 1013.2mb 58f
12:10pm 23 29 mph 1013.2mb 58f
12:01pm 24
mph
1013.2mb 58f
12:00pm 24 29 mph 1013.2mb 58f
11:50am 24 29 mph 1014.2mb 58f
11:40am 23 31 mph 1013.5mb 58f
11:30am 24 30 mph 1013.9mb 58f
11:20am 23 29 mph 1013.9mb 58f
11:10am 23 29 mph 1013.9mb 58f
11:00am 25 31 mph 1013.9mb 58f
10:50am 22 30 mph 1014.6mb 58f
10:40am 22 29 mph 1014.2mb 58f
10:30am 21 26 mph 1013.9mb 58f
10:20am 21 28 mph 1013.9mb 58f
10:10am 21 28 mph 1013.9mb 58f
10:00am 21 26 mph 1013.9mb 58f
9:50am 23 28 mph 1014.6mb 58f
9:40am 22 29 mph 1013.9mb 58f
9:30am 23 28 mph 1014.2mb 58f
9:20am 22 28 mph 1014.2mb 58f
9:10am 21 26 mph 1014.2mb 58f
9:00am 23 26 mph 1014.2mb 58f
8:50am 22 25 mph 1015.2mb 58f
8:40am 21 25 mph 1014.9mb 58f
8:30am 18 24 mph 1014.9mb 58f
8:20am 21 24 mph 1014.9mb 58f
8:10am 20 24 mph 1014.9mb 58f
8:00am 18 21 mph 1014.9mb 58f
7:50am 16 21 mph 1015.6mb 58f
7:40am 15 20 mph 1015.2mb 58f
7:30am 17 21 mph 1015.2mb 58f
7:10am 14 18 mph 1015.2mb 58f
7:00am 15 17 mph 1015.2mb 58f
6:50am 14 16 mph 1015.6mb 58f
6:40am 14 15 mph 1015.2mb 58f
6:30am 13 16 mph 1015.2mb 58f
6:20am 13 15 mph 1015.6mb 58f
6:10am 13 16 mph 1015.2mb 58f
6:00am 13 17 mph 1015.2mb 58f
5:50am 14 17 mph 1015.6mb 58f
5:40am 14 18 mph 1015.2mb 58f
5:30am 15 18 mph 1015.2mb 58f
5:20am 15 18 mph 1015.2mb 59f
5:10am 14 20 mph 1015.2mb 59f
5:00am 14 20 mph 1015.2mb 59f
4:50am 17 22 mph 1015.2mb 59f
4:40am 16 21 mph 1014.9mb 59f
4:30am 17 22 mph 1014.9mb 59f
4:20am 16 21 mph 1014.9mb 59f
4:10am 17 22 mph 1014.9mb 59f
4:00am 17 22 mph 1014.9mb 59f
3:50am 17 21 mph 1015.2mb 59f
3:40am 17 21 mph 1014.9mb 59f
3:30am 16 20 mph 1014.9mb 59f
3:20am 14 18 mph 1014.9mb 59f
3:10am 17 21 mph 1015.2mb 59f
3:00am 16 21 mph 1015.2mb 59f
2:50am 17 20 mph 1015.6mb 59f
2:40am 15 17 mph 1015.2mb 59f
2:30am 11 15 mph 1015.2mb 59f
2:20am 13 15 mph 1015.2mb 59f
2:10am 13 16 mph 1015.2mb 59f
1:50am 14 16 mph 1015.6mb 59f
1:40am 13 15 mph 1015.2mb 59f
1:30am 13 15 mph 1015.2mb 59f
1:20am 13 15 mph 1015.2mb 59f
1:10am 14 16 mph 1015.2mb 59f
1:00am 15 16 mph 1015.2mb 59f
12:50am 13 17 mph 1015.9mb 59f
12:40am 14 16 mph 1015.6mb 59f
12:30am 14 16 mph 1015.6mb 59f
12:20am 13 15 mph 1015.6mb 59f
12:10am 14 16 mph 1015.6mb 59f
12:00am 14 17 mph 1015.6mb 59f
Tue 10/17 11:50pm 15 17 mph 1015.9mb 59f
11:40pm 13 15 mph 1015.6mb 59f
11:30pm 13 15 mph 1015.6mb 59f
11:20pm 11 14 mph 1015.6mb 59f
11:10pm 11 14 mph 1015.6mb 59f
11:00pm 13 15 mph 1015.6mb 59f
10:50pm 13 15 mph 1015.9mb 59f